Time;durP1;ratioP1;P1;durP2;ratioP2;P2;SDS_P1;SDS_P2;PMS_P1;PMS_P2;Temp;Humidity;BMP_temperature;BMP_pressure;BME280_temperature;BME280_humidity;BME280_pressure;Samples;Min_cycle;Max_cycle;Signal;HPM_P1;HPM_P2
2022/10/27 00:02:20;;;;;;;10.20;7.20;;;21.70;72.60;;;;;;213599;1288;24359;-58
2022/10/27 00:07:23;;;;;;;10.80;6.80;;;21.60;72.50;;;;;;213364;1286;23899;-56
2022/10/27 00:12:29;;;;;;;12.90;7.90;;;21.70;72.60;;;;;;213327;1284;24283;-56
2022/10/27 00:17:32;;;;;;;11.40;7.80;;;21.60;72.50;;;;;;213585;1295;22478;-56
2022/10/27 00:22:36;;;;;;;11.10;7.70;;;21.60;72.50;;;;;;213356;1284;23835;-55
2022/10/27 00:27:39;;;;;;;11.80;7.50;;;21.60;72.40;;;;;;213710;1280;23902;-57
2022/10/27 00:32:43;;;;;;;11.20;7.20;;;21.60;72.30;;;;;;213668;1286;22543;-58
2022/10/27 00:37:58;;;;;;;11.20;7.60;;;21.60;72.60;;;;;;213265;1293;24265;-57
2022/10/27 00:43:31;;;;;;;10.00;7.20;;;21.60;72.30;;;;;;213659;1288;24717;-56
2022/10/27 00:48:34;;;;;;;11.00;7.20;;;21.60;72.40;;;;;;213576;1284;24240;-56
2022/10/27 00:53:38;;;;;;;11.20;7.30;;;21.60;72.40;;;;;;213689;1288;22488;-55
2022/10/27 00:58:45;;;;;;;11.20;7.50;;;21.60;72.50;;;;;;213616;1280;22484;-57
2022/10/27 01:03:49;;;;;;;11.20;8.00;;;21.60;72.90;;;;;;213890;1288;22614;-57
2022/10/27 01:08:56;;;;;;;12.90;7.10;;;21.60;72.60;;;;;;213644;1290;24246;-56
2022/10/27 01:13:59;;;;;;;11.20;7.60;;;21.60;72.90;;;;;;213495;1280;23861;-57
2022/10/27 01:19:31;;;;;;;10.10;7.40;;;21.60;73.10;;;;;;213775;1294;22541;-57
2022/10/27 01:25:02;;;;;;;10.00;7.30;;;21.60;73.20;;;;;;213627;1281;23862;-57
2022/10/27 01:30:07;;;;;;;;;;;21.60;73.30;;;;;;213685;1288;23838;-56
2022/10/27 01:35:26;;;;;;;11.60;8.40;;;21.60;73.60;;;;;;213548;1287;22613;-56
2022/10/27 01:40:45;;;;;;;12.40;7.10;;;21.60;73.70;;;;;;213600;1280;22492;-58
2022/10/27 01:45:50;;;;;;;11.20;8.40;;;21.60;73.80;;;;;;213562;1289;22486;-52
2022/10/27 01:50:54;;;;;;;10.70;7.60;;;21.60;74.20;;;;;;213516;1288;22493;-57
2022/10/27 01:56:31;;;;;;;10.80;7.50;;;21.60;74.00;;;;;;213600;1286;22473;-56
2022/10/27 02:01:45;;;;;;;9.40;7.00;;;21.60;74.00;;;;;;213343;1287;22480;-55
2022/10/27 02:07:17;;;;;;;12.30;7.80;;;21.60;74.10;;;;;;213686;1288;22496;-57
2022/10/27 02:12:29;;;;;;;11.40;7.30;;;21.60;74.80;;;;;;213586;1281;24047;-55
2022/10/27 02:17:45;;;;;;;5.90;6.30;;;21.60;74.00;;;;;;213685;1281;24783;-58
2022/10/27 02:22:52;;;;;;;12.40;7.50;;;21.60;73.80;;;;;;213494;1288;22471;-55
2022/10/27 02:28:05;;;;;;;9.70;7.00;;;21.60;74.00;;;;;;213599;1287;26502;-57
2022/10/27 02:33:09;;;;;;;9.80;7.40;;;21.60;73.50;;;;;;213649;1286;22606;-57
2022/10/27 02:38:13;;;;;;;10.10;7.40;;;21.60;73.40;;;;;;213573;1287;23867;-56
2022/10/27 02:43:16;;;;;;;11.10;7.40;;;21.60;73.10;;;;;;213405;1288;22482;-56
2022/10/27 02:48:20;;;;;;;11.20;7.60;;;21.60;73.10;;;;;;216453;1302;24346;-56
2022/10/27 02:53:26;;;;;;;9.80;7.30;;;21.50;73.00;;;;;;213538;1294;24289;-56
2022/10/27 02:58:29;;;;;;;10.10;7.20;;;21.50;72.90;;;;;;213487;1302;22477;-57
2022/10/27 03:03:33;;;;;;;8.70;6.50;;;21.60;73.00;;;;;;213564;1285;23280;-55
2022/10/27 03:08:36;;;;;;;9.60;6.90;;;21.60;73.00;;;;;;213514;1288;22654;-57
2022/10/27 03:13:40;;;;;;;9.70;7.20;;;21.50;73.10;;;;;;213854;1288;22859;-57
2022/10/27 03:18:43;;;;;;;8.10;6.00;;;21.50;73.10;;;;;;213642;1290;25654;-56
2022/10/27 03:23:47;;;;;;;11.20;7.20;;;21.50;72.80;;;;;;213515;1280;22519;-58
2022/10/27 03:28:50;;;;;;;8.90;6.20;;;21.50;72.80;;;;;;213530;1303;23873;-57
2022/10/27 03:33:53;;;;;;;9.10;6.20;;;21.50;72.70;;;;;;213574;1283;25381;-57
2022/10/27 03:38:57;;;;;;;8.60;6.20;;;21.50;72.80;;;;;;213622;1288;22703;-58
2022/10/27 03:44:00;;;;;;;8.60;6.10;;;21.40;72.40;;;;;;213524;1295;24234;-56
2022/10/27 03:49:04;;;;;;;9.60;6.80;;;21.40;72.70;;;;;;213512;1287;22610;-57
2022/10/27 03:54:07;;;;;;;8.80;6.30;;;21.40;72.70;;;;;;213611;1287;22560;-56
2022/10/27 03:59:11;;;;;;;7.80;6.00;;;21.40;72.60;;;;;;213545;1288;24250;-56
2022/10/27 04:04:14;;;;;;;9.50;6.30;;;21.40;72.70;;;;;;213655;1294;22486;-56
2022/10/27 04:09:18;;;;;;;10.90;7.10;;;21.40;73.00;;;;;;213601;1287;22490;-56
2022/10/27 04:14:21;;;;;;;9.30;6.60;;;21.30;72.60;;;;;;213640;1299;24189;-57
2022/10/27 04:19:25;;;;;;;8.30;6.00;;;21.30;72.60;;;;;;213496;1306;22664;-57
2022/10/27 04:24:28;;;;;;;8.30;6.50;;;21.30;72.50;;;;;;213548;1297;22492;-57
2022/10/27 04:29:41;;;;;;;9.00;6.50;;;21.30;72.70;;;;;;213584;1284;22563;-57
2022/10/27 04:34:45;;;;;;;10.30;5.80;;;21.30;72.70;;;;;;213392;1286;25498;-57
2022/10/27 04:39:52;;;;;;;9.70;6.10;;;21.30;72.30;;;;;;213454;1288;22847;-59
2022/10/27 04:44:55;;;;;;;8.50;6.00;;;21.30;72.60;;;;;;213456;1293;22566;-58
2022/10/27 04:49:59;;;;;;;8.60;6.30;;;21.30;72.30;;;;;;213494;1288;22492;-56
2022/10/27 04:55:02;;;;;;;9.20;6.30;;;21.20;71.80;;;;;;213415;1283;22612;-57
2022/10/27 05:00:07;;;;;;;8.30;6.10;;;21.30;72.30;;;;;;213542;1284;24276;-56
2022/10/27 05:05:11;;;;;;;8.40;5.80;;;21.30;72.30;;;;;;213520;1291;24246;-57
2022/10/27 05:10:14;;;;;;;8.70;5.80;;;21.20;72.20;;;;;;213669;1288;25669;-57
2022/10/27 05:15:18;;;;;;;8.00;6.10;;;21.20;72.10;;;;;;213612;1284;22491;-52
2022/10/27 05:20:22;;;;;;;8.00;5.80;;;21.20;72.60;;;;;;213622;1288;24258;-58
2022/10/27 05:25:26;;;;;;;10.70;6.10;;;21.20;72.20;;;;;;213780;1281;22493;-56
2022/10/27 05:30:29;;;;;;;7.90;5.80;;;21.20;72.10;;;;;;213614;1280;22553;-56
2022/10/27 05:35:33;;;;;;;8.70;6.10;;;21.20;72.20;;;;;;213719;1294;23837;-57
2022/10/27 05:40:36;;;;;;;7.80;5.90;;;21.20;72.20;;;;;;213475;1285;23981;-57
2022/10/27 05:45:40;;;;;;;9.30;5.90;;;21.10;72.20;;;;;;213546;1288;22495;-56
2022/10/27 05:50:43;;;;;;;11.00;5.90;;;21.10;71.90;;;;;;213597;1294;25978;-57
2022/10/27 05:55:47;;;;;;;10.20;6.00;;;21.10;72.20;;;;;;213292;1283;22545;-57
2022/10/27 06:00:51;;;;;;;9.30;6.30;;;21.10;72.60;;;;;;213663;1295;25219;-57
2022/10/27 06:05:54;;;;;;;10.70;6.10;;;21.10;72.60;;;;;;213334;1296;173002;-60
2022/10/27 06:10:58;;;;;;;12.30;6.80;;;21.10;72.70;;;;;;213391;1288;22647;-58
2022/10/27 06:16:02;;;;;;;10.70;6.70;;;21.10;72.20;;;;;;216405;1291;25337;-59
2022/10/27 06:21:05;;;;;;;14.30;6.50;;;21.10;72.50;;;;;;213543;1295;24024;-59
2022/10/27 06:26:10;;;;;;;13.30;6.60;;;21.20;72.30;;;;;;213703;1291;23156;-60
2022/10/27 06:31:14;;;;;;;12.00;6.70;;;21.20;72.00;;;;;;213400;1288;23962;-58
2022/10/27 06:36:19;;;;;;;12.20;6.80;;;21.20;71.90;;;;;;213551;1280;22598;-59
2022/10/27 06:41:22;;;;;;;15.30;6.90;;;21.20;71.20;;;;;;213710;1283;22479;-57
2022/10/27 06:46:26;;;;;;;16.20;7.90;;;21.20;71.30;;;;;;213482;1293;24294;-57
2022/10/27 06:51:30;;;;;;;12.70;7.10;;;21.20;71.70;;;;;;213302;1288;24247;-54
2022/10/27 06:56:35;;;;;;;13.70;8.00;;;21.20;71.10;;;;;;213174;1287;23865;-58
2022/10/27 07:01:39;;;;;;;14.30;6.90;;;21.30;71.10;;;;;;213530;1288;23829;-59
2022/10/27 07:06:47;;;;;;;12.60;6.70;;;21.20;70.80;;;;;;213533;1288;22490;-57
2022/10/27 07:11:50;;;;;;;12.70;7.30;;;21.20;71.50;;;;;;213412;1291;22560;-58
2022/10/27 07:16:54;;;;;;;12.70;7.70;;;21.20;71.10;;;;;;213504;1288;24028;-57
2022/10/27 07:21:57;;;;;;;17.90;9.10;;;21.20;71.10;;;;;;213625;1288;24272;-59
2022/10/27 07:27:01;;;;;;;20.20;9.20;;;21.20;69.80;;;;;;213620;1288;24373;-60
2022/10/27 07:32:07;;;;;;;17.70;9.70;;;21.30;69.10;;;;;;213558;1288;22489;-57
2022/10/27 07:37:11;;;;;;;20.70;9.60;;;21.20;68.90;;;;;;213566;1288;22478;-59
2022/10/27 07:42:16;;;;;;;15.90;9.90;;;21.30;68.10;;;;;;213681;1288;22521;-60
2022/10/27 07:47:19;;;;;;;16.80;10.40;;;21.30;67.70;;;;;;213674;1309;24047;-58
2022/10/27 07:52:23;;;;;;;19.10;10.20;;;21.20;67.30;;;;;;213502;1300;22494;-58
2022/10/27 07:57:27;;;;;;;16.20;9.90;;;21.20;67.00;;;;;;213650;1283;24381;-57
2022/10/27 08:02:30;;;;;;;15.40;10.40;;;21.30;66.90;;;;;;213583;1308;26129;-57
2022/10/27 08:07:34;;;;;;;19.50;10.50;;;21.30;66.40;;;;;;213554;1293;24339;-58
2022/10/27 08:12:43;;;;;;;14.70;10.00;;;21.30;66.30;;;;;;213679;1291;23866;-59
2022/10/27 08:17:53;;;;;;;15.10;9.90;;;21.30;66.00;;;;;;213782;1297;22525;-59
2022/10/27 08:22:58;;;;;;;16.40;10.00;;;21.30;66.30;;;;;;213579;1295;24404;-58
2022/10/27 08:28:04;;;;;;;14.50;9.10;;;21.30;66.00;;;;;;213696;1288;22506;-58
2022/10/27 08:33:12;;;;;;;13.40;9.20;;;21.30;66.40;;;;;;213867;1291;22481;-58
2022/10/27 08:38:20;;;;;;;19.00;9.50;;;21.40;66.10;;;;;;213584;1301;25276;-58
2022/10/27 08:43:46;;;;;;;14.20;8.70;;;21.50;66.20;;;;;;213613;1297;22487;-59
2022/10/27 08:49:00;;;;;;;14.60;8.70;;;21.50;66.10;;;;;;213655;1290;24243;-58
2022/10/27 08:54:05;;;;;;;10.70;8.40;;;21.60;66.40;;;;;;213537;1294;22524;-59
2022/10/27 08:59:19;;;;;;;14.20;9.10;;;21.60;67.20;;;;;;213449;1303;25465;-59
2022/10/27 09:04:59;;;;;;;14.30;9.00;;;21.60;68.30;;;;;;213609;1305;22487;-59
2022/10/27 09:10:18;;;;;;;13.30;8.50;;;21.70;68.00;;;;;;213647;1299;25436;-58
2022/10/27 09:15:27;;;;;;;14.90;7.80;;;21.80;67.80;;;;;;213740;1294;25245;-59
2022/10/27 09:20:51;;;;;;;12.40;7.50;;;21.80;67.90;;;;;;213758;1299;25931;-57
2022/10/27 09:25:58;;;;;;;12.20;7.90;;;21.90;67.60;;;;;;213587;1291;24243;-58
2022/10/27 09:31:05;;;;;;;13.10;7.60;;;21.90;67.50;;;;;;213663;1289;23538;-58
2022/10/27 09:36:13;;;;;;;8.80;6.30;;;22.00;67.40;;;;;;213531;1297;23049;-58
2022/10/27 09:41:17;;;;;;;9.60;6.60;;;22.10;67.30;;;;;;213709;1284;24782;-59
2022/10/27 09:46:24;;;;;;;10.50;7.40;;;22.10;66.90;;;;;;213393;1300;22623;-58
2022/10/27 09:52:00;;;;;;;10.10;7.00;;;22.20;67.20;;;;;;213655;1288;26487;-58
2022/10/27 09:57:18;;;;;;;11.10;6.40;;;22.30;66.50;;;;;;213507;1287;22500;-57
2022/10/27 10:02:32;;;;;;;12.40;6.70;;;22.40;65.80;;;;;;213590;1284;24640;-60
2022/10/27 10:07:39;;;;;;;10.20;5.40;;;22.40;65.60;;;;;;213500;1283;22477;-58
2022/10/27 10:12:43;;;;;;;10.80;5.50;;;22.30;65.40;;;;;;213655;1303;25247;-57
2022/10/27 10:17:56;;;;;;;8.90;5.10;;;22.40;65.30;;;;;;213792;1288;25378;-57
2022/10/27 10:23:02;;;;;;;8.60;4.70;;;22.40;65.10;;;;;;213650;1309;24259;-58
2022/10/27 10:28:23;;;;;;;7.10;4.50;;;22.50;64.90;;;;;;213570;1287;22608;-59
2022/10/27 10:33:33;;;;;;;10.50;4.90;;;22.50;65.10;;;;;;213684;1304;22657;-58
2022/10/27 10:38:47;;;;;;;6.50;4.10;;;22.50;64.50;;;;;;213644;1291;24280;-58
2022/10/27 10:44:14;;;;;;;7.50;3.80;;;22.60;64.30;;;;;;213644;1297;22503;-59
2022/10/27 10:49:26;;;;;;;10.00;4.50;;;22.70;64.70;;;;;;213520;1300;25283;-59
2022/10/27 10:54:36;;;;;;;8.90;4.00;;;22.80;64.00;;;;;;213563;1293;22506;-59
2022/10/27 10:59:44;;;;;;;11.50;4.00;;;22.80;64.30;;;;;;213499;1288;25804;-57
2022/10/27 11:04:47;;;;;;;7.90;3.50;;;22.90;63.60;;;;;;213630;1300;23083;-59
2022/10/27 11:10:11;;;;;;;5.40;3.70;;;22.90;63.70;;;;;;213768;1287;26755;-58
2022/10/27 11:15:36;;;;;;;6.70;3.80;;;23.00;63.30;;;;;;213739;1280;25954;-60
2022/10/27 11:20:43;;;;;;;8.20;3.70;;;23.00;63.60;;;;;;213715;1291;22980;-58
2022/10/27 11:25:48;;;;;;;5.40;3.30;;;23.00;63.40;;;;;;213606;1288;24366;-56
2022/10/27 11:31:27;;;;;;;9.40;3.50;;;23.00;63.10;;;;;;213766;1286;23889;-59
2022/10/27 11:36:45;;;;;;;9.70;3.40;;;23.00;63.40;;;;;;212990;1280;24116;-59
2022/10/27 11:42:27;;;;;;;9.70;3.60;;;23.10;63.20;;;;;;213696;1290;22496;-59
2022/10/27 11:47:55;;;;;;;5.60;3.40;;;23.10;63.60;;;;;;213689;1303;26583;-58
2022/10/27 11:53:06;;;;;;;8.40;3.20;;;23.20;63.40;;;;;;213530;1289;24335;-61
2022/10/27 11:58:24;;;;;;;8.00;3.30;;;23.20;63.40;;;;;;213444;1292;22492;-58
2022/10/27 12:04:03;;;;;;;6.60;3.30;;;23.20;63.50;;;;;;213694;1283;25601;-59
2022/10/27 12:09:38;;;;;;;9.30;3.40;;;23.20;63.60;;;;;;213779;1280;22758;-60
2022/10/27 12:14:53;;;;;;;6.40;3.30;;;23.30;63.60;;;;;;213733;1288;22827;-59
2022/10/27 12:20:12;;;;;;;8.30;3.20;;;23.30;63.70;;;;;;213623;1281;24248;-58
2022/10/27 12:26:20;;;;;;;5.30;3.10;;;23.30;63.60;;;;;;213454;1289;22528;-59
2022/10/27 12:31:28;;;;;;;6.60;3.30;;;23.30;64.10;;;;;;213599;1294;25467;-59
2022/10/27 12:36:44;;;;;;;4.80;3.00;;;23.40;63.70;;;;;;213568;1288;22484;-59
2022/10/27 12:42:06;;;;;;;6.30;3.40;;;23.30;64.20;;;;;;213612;1286;24262;-58
2022/10/27 12:47:15;;;;;;;5.50;2.80;;;23.30;63.80;;;;;;213569;1293;22480;-58
2022/10/27 12:52:27;;;;;;;5.00;2.70;;;23.30;64.30;;;;;;213670;1288;22479;-59
2022/10/27 12:57:37;;;;;;;7.30;3.40;;;23.30;64.10;;;;;;213522;1288;23948;-58
2022/10/27 13:03:10;;;;;;;5.80;2.80;;;23.30;64.00;;;;;;213484;1280;26703;-59
2022/10/27 13:08:43;;;;;;;5.80;3.10;;;23.30;64.10;;;;;;213463;1303;22591;-59
2022/10/27 13:14:10;;;;;;;6.90;3.50;;;23.30;64.10;;;;;;213477;1291;22482;-60
2022/10/27 13:19:40;;;;;;;6.40;3.40;;;23.30;64.20;;;;;;213416;1288;24941;-59
2022/10/27 13:24:58;;;;;;;5.30;2.90;;;23.30;64.30;;;;;;213612;1288;25951;-58
2022/10/27 13:30:07;;;;;;;6.30;3.40;;;23.30;64.30;;;;;;213630;1280;22478;-49
2022/10/27 13:35:10;;;;;;;10.70;3.20;;;23.20;64.80;;;;;;213633;1290;22575;-48
2022/10/27 13:40:20;;;;;;;10.00;3.00;;;23.20;64.80;;;;;;213651;1288;25548;-51
2022/10/27 13:45:27;;;;;;;8.70;3.30;;;23.10;64.80;;;;;;213608;1296;23037;-50
2022/10/27 13:50:32;;;;;;;5.80;2.80;;;23.00;64.40;;;;;;213562;1288;24032;-49
2022/10/27 13:55:38;;;;;;;5.80;2.80;;;23.00;64.80;;;;;;213218;1293;24274;-51
2022/10/27 14:00:57;;;;;;;6.90;3.30;;;23.00;64.70;;;;;;213671;1294;22542;-51
2022/10/27 14:06:02;;;;;;;6.60;3.00;;;23.00;64.60;;;;;;213492;1302;22516;-50
2022/10/27 14:11:19;;;;;;;5.50;3.00;;;22.90;65.30;;;;;;213637;1286;23005;-46
2022/10/27 14:16:33;;;;;;;6.30;2.70;;;22.90;65.10;;;;;;213559;1284;22478;-47
2022/10/27 14:21:55;;;;;;;5.60;3.00;;;22.80;65.00;;;;;;213557;1290;25504;-47
2022/10/27 14:27:05;;;;;;;6.30;2.70;;;22.80;65.00;;;;;;213420;1292;22497;-52
2022/10/27 14:32:23;;;;;;;6.30;2.90;;;22.70;65.00;;;;;;213624;1290;23915;-49
2022/10/27 14:37:38;;;;;;;5.20;2.60;;;22.70;65.10;;;;;;213739;1289;23087;-48
2022/10/27 14:42:57;;;;;;;4.50;2.70;;;22.70;65.20;;;;;;213519;1281;25488;-51
2022/10/27 14:48:29;;;;;;;5.10;2.90;;;22.70;65.20;;;;;;213729;1294;22518;-50
2022/10/27 14:53:57;;;;;;;4.40;2.50;;;22.60;65.60;;;;;;213494;1288;24354;-50
2022/10/27 14:59:28;;;;;;;4.60;2.90;;;22.60;65.30;;;;;;213414;1294;24308;-49
2022/10/27 15:04:39;;;;;;;5.40;2.90;;;22.60;65.40;;;;;;213455;1310;22718;-51
2022/10/27 15:09:49;;;;;;;4.50;2.70;;;22.50;65.50;;;;;;213543;1296;22620;-48
2022/10/27 15:14:58;;;;;;;11.90;3.60;;;22.50;65.90;;;;;;213480;1280;24234;-52
2022/10/27 15:20:15;;;;;;;6.30;3.10;;;22.50;65.50;;;;;;213452;1288;23798;-48
2022/10/27 15:25:26;;;;;;;7.00;3.80;;;22.40;65.70;;;;;;213370;1296;25331;-49
2022/10/27 15:30:31;;;;;;;5.90;3.30;;;22.40;65.80;;;;;;213418;1287;22507;-48
2022/10/27 15:35:37;;;;;;;5.90;3.70;;;22.40;66.10;;;;;;213598;1288;22462;-50
2022/10/27 15:40:44;;;;;;;8.90;4.00;;;22.40;66.20;;;;;;213737;1286;24261;-49
2022/10/27 15:45:52;;;;;;;9.30;4.70;;;22.40;65.80;;;;;;213621;1288;22538;-48
2022/10/27 15:51:09;;;;;;;9.10;5.20;;;22.30;65.70;;;;;;213702;1286;22542;-48
2022/10/27 15:56:30;;;;;;;7.30;4.60;;;22.30;66.40;;;;;;213429;1290;22487;-53
2022/10/27 16:01:35;;;;;;;14.20;4.40;;;22.30;66.50;;;;;;213491;1280;22516;-52
2022/10/27 16:06:48;;;;;;;15.60;4.90;;;22.30;66.00;;;;;;213521;1287;22500;-47
2022/10/27 16:12:01;;;;;;;12.00;5.20;;;22.30;66.00;;;;;;213421;1287;24357;-49
2022/10/27 16:17:21;;;;;;;10.70;5.80;;;22.30;65.90;;;;;;213301;1288;25212;-47
2022/10/27 16:22:26;;;;;;;11.20;5.30;;;22.40;66.00;;;;;;213375;1280;25437;-52
2022/10/27 16:27:38;;;;;;;13.90;6.40;;;22.30;65.90;;;;;;213395;1289;22569;-52
2022/10/27 16:32:45;;;;;;;11.00;5.40;;;22.40;66.20;;;;;;214026;1294;25593;-54
2022/10/27 16:37:55;;;;;;;11.10;6.00;;;22.30;66.20;;;;;;213905;1286;24255;-52
2022/10/27 16:43:01;;;;;;;12.50;5.90;;;22.40;66.10;;;;;;221558;1295;22854;-50
2022/10/27 16:48:12;;;;;;;9.30;6.20;;;22.40;66.50;;;;;;214798;1288;22526;-52
2022/10/27 16:53:19;;;;;;;9.10;5.80;;;22.40;66.20;;;;;;213373;1293;25453;-51
2022/10/27 16:58:24;;;;;;;12.60;5.80;;;22.40;66.30;;;;;;214169;1297;25213;-50
2022/10/27 17:03:27;;;;;;;10.80;6.90;;;22.40;66.60;;;;;;213324;1291;24434;-49
2022/10/27 17:08:34;;;;;;;12.10;7.00;;;22.40;66.60;;;;;;213292;1284;25654;-53
2022/10/27 17:13:38;;;;;;;11.40;7.30;;;22.40;66.60;;;;;;213321;1280;22481;-52
2022/10/27 17:18:43;;;;;;;10.70;7.60;;;22.40;67.00;;;;;;213535;1287;22487;-48
2022/10/27 17:23:46;;;;;;;13.30;8.20;;;22.40;66.60;;;;;;213495;1287;24363;-47
2022/10/27 17:28:50;;;;;;;18.10;8.00;;;22.30;66.70;;;;;;213409;1279;25359;-46
2022/10/27 17:33:56;;;;;;;18.00;7.80;;;22.40;67.00;;;;;;213629;1286;24264;-48
2022/10/27 17:38:59;;;;;;;16.00;9.20;;;22.30;66.80;;;;;;213477;1288;22494;-49
2022/10/27 17:44:03;;;;;;;15.30;9.50;;;22.60;67.10;;;;;;213499;1288;25374;-46
2022/10/27 17:49:07;;;;;;;20.30;12.60;;;22.50;66.60;;;;;;213558;1280;24309;-52
2022/10/27 17:54:12;;;;;;;26.20;12.30;;;22.60;66.70;;;;;;213460;1287;25389;-53
2022/10/27 17:59:19;;;;;;;23.00;13.40;;;22.70;66.60;;;;;;213514;1294;22500;-51
2022/10/27 18:04:22;;;;;;;23.50;12.40;;;22.50;66.50;;;;;;213434;1296;22488;-54
2022/10/27 18:09:26;;;;;;;21.60;11.60;;;22.40;67.00;;;;;;213137;1292;388762;-51
2022/10/27 18:14:29;;;;;;;23.40;12.80;;;22.40;67.00;;;;;;213347;1281;24218;-50
2022/10/27 18:19:38;;;;;;;23.70;13.70;;;22.40;67.00;;;;;;213545;1288;22525;-52
2022/10/27 18:24:44;;;;;;;18.00;12.50;;;22.40;66.90;;;;;;213504;1280;22670;-50
2022/10/27 18:29:48;;;;;;;18.80;11.30;;;22.40;67.00;;;;;;213490;1280;25534;-52
2022/10/27 18:34:51;;;;;;;19.40;11.60;;;22.40;67.10;;;;;;213592;1286;22477;-51
2022/10/27 18:39:55;;;;;;;19.90;11.80;;;22.30;67.50;;;;;;213611;1296;22722;-51
2022/10/27 18:44:59;;;;;;;20.70;12.40;;;22.30;67.20;;;;;;213526;1280;23349;-50
2022/10/27 18:50:10;;;;;;;21.80;12.80;;;22.30;67.10;;;;;;213331;1288;22507;-49
2022/10/27 18:55:13;;;;;;;21.50;12.40;;;22.30;67.40;;;;;;213583;1292;22480;-51
2022/10/27 19:00:18;;;;;;;22.10;12.70;;;22.30;68.00;;;;;;213626;1290;25524;-50
2022/10/27 19:05:22;;;;;;;21.80;11.90;;;22.30;68.20;;;;;;213412;1283;22608;-51
2022/10/27 19:10:28;;;;;;;19.50;11.30;;;22.30;68.40;;;;;;213597;1287;22496;-51
2022/10/27 19:15:34;;;;;;;22.40;11.90;;;22.30;68.00;;;;;;213599;1295;25377;-52
2022/10/27 19:20:44;;;;;;;21.90;12.70;;;22.30;68.00;;;;;;213589;1303;23845;-51
2022/10/27 19:26:03;;;;;;;19.90;12.00;;;22.30;67.90;;;;;;213362;1286;22481;-49
2022/10/27 19:31:16;;;;;;;24.70;12.00;;;22.20;68.40;;;;;;213363;1288;25346;-51
2022/10/27 19:36:33;;;;;;;17.00;12.10;;;22.20;68.00;;;;;;213503;1283;24244;-51
2022/10/27 19:41:41;;;;;;;18.90;12.00;;;22.20;68.00;;;;;;213455;1296;22491;-51
2022/10/27 19:46:50;;;;;;;21.30;12.00;;;22.20;68.00;;;;;;213481;1288;22686;-48
2022/10/27 19:52:00;;;;;;;17.10;11.80;;;22.20;68.30;;;;;;213586;1280;24286;-52
2022/10/27 19:57:29;;;;;;;19.30;11.60;;;22.20;68.20;;;;;;213644;1288;25301;-57
2022/10/27 20:02:56;;;;;;;17.40;11.20;;;22.20;68.20;;;;;;213544;1288;25293;-49
2022/10/27 20:08:14;;;;;;;18.50;11.20;;;22.20;68.10;;;;;;213401;1287;24247;-51
2022/10/27 20:13:22;;;;;;;21.50;12.50;;;22.20;68.40;;;;;;213606;1294;22569;-52
2022/10/27 20:18:26;;;;;;;22.20;10.80;;;22.20;68.80;;;;;;213573;1280;22552;-46
2022/10/27 20:23:30;;;;;;;15.70;9.70;;;22.20;69.20;;;;;;213530;1288;24369;-50
2022/10/27 20:28:41;;;;;;;19.60;11.70;;;22.20;68.70;;;;;;213539;1288;22559;-47
2022/10/27 20:33:44;;;;;;;17.10;10.40;;;22.20;69.00;;;;;;213597;1286;22657;-52
2022/10/27 20:38:52;;;;;;;18.50;10.60;;;22.20;69.10;;;;;;213509;1280;22731;-50
2022/10/27 20:44:04;;;;;;;15.50;10.10;;;22.20;69.10;;;;;;213583;1288;25316;-49
2022/10/27 20:49:24;;;;;;;15.50;9.80;;;22.20;69.00;;;;;;213543;1294;25614;-49
2022/10/27 20:54:31;;;;;;;17.10;11.10;;;22.20;69.10;;;;;;213223;1286;24294;-49
2022/10/27 20:59:49;;;;;;;17.00;11.80;;;22.20;69.10;;;;;;213476;1294;24227;-48
2022/10/27 21:05:07;;;;;;;17.40;10.70;;;22.10;69.10;;;;;;213637;1281;24391;-50
2022/10/27 21:10:11;;;;;;;21.50;11.20;;;22.10;69.20;;;;;;213613;1282;25369;-50
2022/10/27 21:15:14;;;;;;;16.80;11.30;;;22.10;69.30;;;;;;213598;1288;24319;-52
2022/10/27 21:20:24;;;;;;;16.50;11.00;;;22.10;69.20;;;;;;213516;1288;25104;-51
2022/10/27 21:25:37;;;;;;;18.00;10.60;;;22.00;69.40;;;;;;213462;1292;22474;-52
2022/10/27 21:30:52;;;;;;;24.30;11.90;;;22.00;69.40;;;;;;213655;1280;25241;-51
2022/10/27 21:36:12;;;;;;;18.70;11.30;;;22.10;71.90;;;;;;213552;1286;22577;-52
2022/10/27 21:41:19;;;;;;;31.70;12.90;;;22.10;73.60;;;;;;213489;1286;22494;-53
2022/10/27 21:46:25;;;;;;;16.00;10.70;;;22.10;73.30;;;;;;213432;1293;25772;-53
2022/10/27 21:51:29;;;;;;;18.60;11.10;;;22.10;73.50;;;;;;213571;1288;22641;-49
2022/10/27 21:56:34;;;;;;;20.80;11.80;;;22.10;73.70;;;;;;213524;1288;23816;-56
2022/10/27 22:01:38;;;;;;;13.90;9.70;;;22.10;73.10;;;;;;213731;1295;23923;-57
2022/10/27 22:06:42;;;;;;;16.10;10.60;;;22.10;73.10;;;;;;213739;1288;23863;-57
2022/10/27 22:11:46;;;;;;;19.00;10.90;;;22.00;72.90;;;;;;213686;1287;22500;-57
2022/10/27 22:16:49;;;;;;;14.90;10.60;;;22.00;73.20;;;;;;213518;1288;24277;-56
2022/10/27 22:21:53;;;;;;;15.90;10.30;;;22.00;72.70;;;;;;213513;1283;24336;-57
2022/10/27 22:26:57;;;;;;;19.00;10.80;;;22.00;72.90;;;;;;213737;1288;25529;-57
2022/10/27 22:32:00;;;;;;;18.50;9.80;;;22.00;72.70;;;;;;213570;1286;25234;-57
2022/10/27 22:37:13;;;;;;;16.40;10.10;;;22.00;72.80;;;;;;213579;1284;22505;-56
2022/10/27 22:42:17;;;;;;;17.90;9.50;;;22.00;72.90;;;;;;213442;1288;23919;-57
2022/10/27 22:47:22;;;;;;;15.30;10.00;;;21.90;72.90;;;;;;213532;1288;22696;-56
2022/10/27 22:52:26;;;;;;;17.00;10.10;;;21.90;72.50;;;;;;213450;1288;22615;-57
2022/10/27 22:57:29;;;;;;;19.40;9.80;;;21.90;73.00;;;;;;213654;1288;25479;-57
2022/10/27 23:02:33;;;;;;;15.50;10.10;;;21.90;72.70;;;;;;213586;1283;25616;-56
2022/10/27 23:07:37;;;;;;;15.80;10.20;;;21.90;72.50;;;;;;213746;1281;24232;-56
2022/10/27 23:12:40;;;;;;;15.70;9.50;;;21.90;72.60;;;;;;213714;1288;24355;-57
2022/10/27 23:17:44;;;;;;;14.80;10.30;;;21.90;72.40;;;;;;213624;1288;22974;-56
2022/10/27 23:22:47;;;;;;;13.00;10.20;;;21.80;72.60;;;;;;213351;1288;22483;-57
2022/10/27 23:27:52;;;;;;;15.50;9.60;;;21.80;72.30;;;;;;213563;1280;24247;-58
2022/10/27 23:33:09;;;;;;;12.70;9.40;;;21.80;72.20;;;;;;213788;1293;22559;-56
2022/10/27 23:38:12;;;;;;;14.00;9.10;;;21.80;72.30;;;;;;213614;1286;26472;-56
2022/10/27 23:43:17;;;;;;;14.00;9.60;;;21.80;72.30;;;;;;213282;1288;24360;-53
2022/10/27 23:48:21;;;;;;;13.60;9.20;;;21.70;72.10;;;;;;221186;1290;22642;-56
2022/10/27 23:53:25;;;;;;;12.50;8.90;;;21.70;72.40;;;;;;213331;1281;22478;-56
2022/10/27 23:58:32;;;;;;;13.00;9.00;;;21.80;72.10;;;;;;213612;1287;23896;-56
